Time;durP1;ratioP1;P1;durP2;ratioP2;P2;SDS_P1;SDS_P2;PMS_P1;PMS_P2;Temp;Humidity;BMP_temperature;BMP_pressure;BME280_temperature;BME280_humidity;BME280_pressure;Samples;Min_cycle;Max_cycle;Signal;HPM_P1;HPM_P2
2022/03/03 00:01:38;;;;;;;38.30;21.23;;;;;;;1.56;92.54;96879.06;5054307;28;20044;-68
2022/03/03 00:04:04;;;;;;;40.85;21.58;;;;;;;1.40;93.14;96873.19;5056774;28;20051;-65
2022/03/03 00:06:30;;;;;;;37.72;20.92;;;;;;;1.40;94.54;96871.28;5052865;28;20068;-67
2022/03/03 00:08:56;;;;;;;39.83;21.10;;;;;;;1.50;95.10;96875.66;5052061;28;20099;-67
2022/03/03 00:11:22;;;;;;;40.25;21.15;;;;;;;1.49;95.11;96874.06;5047552;28;20119;-65
2022/03/03 00:13:48;;;;;;;39.58;21.17;;;;;;;1.48;94.97;96870.56;5057400;28;20037;-67
2022/03/03 00:16:13;;;;;;;40.67;21.38;;;;;;;1.19;95.78;96865.53;5043220;28;20041;-67
2022/03/03 00:18:39;;;;;;;53.97;25.98;;;;;;;1.13;96.93;96874.81;5042812;28;20036;-67
2022/03/03 00:21:05;;;;;;;43.65;23.85;;;;;;;1.07;96.31;96867.94;5044811;28;20072;-66
2022/03/03 00:23:30;;;;;;;43.90;22.13;;;;;;;1.03;97.46;96867.72;5058899;28;20071;-67
2022/03/03 00:25:56;;;;;;;40.55;21.67;;;;;;;1.02;97.82;96868.03;5061429;28;20048;-68
2022/03/03 00:28:21;;;;;;;43.25;23.30;;;;;;;0.93;98.43;96865.22;5047091;28;20895;-67
2022/03/03 00:30:47;;;;;;;40.22;21.80;;;;;;;0.91;98.87;96865.53;5044491;28;20132;-67
2022/03/03 00:33:12;;;;;;;44.47;22.77;;;;;;;0.89;99.46;96864.25;5037296;28;20079;-68
2022/03/03 00:35:38;;;;;;;42.53;22.98;;;;;;;0.91;99.46;96862.81;5042157;28;20122;-66
2022/03/03 00:38:04;;;;;;;41.30;23.20;;;;;;;0.89;98.78;96866.94;5032793;28;20033;-66
2022/03/03 00:40:29;;;;;;;44.08;23.42;;;;;;;0.85;99.44;96868.63;5038612;28;20045;-66
2022/03/03 00:42:54;;;;;;;45.25;23.27;;;;;;;0.82;99.80;96866.53;5054338;28;20091;-66
2022/03/03 00:45:20;;;;;;;47.35;23.15;;;;;;;0.73;99.40;96867.22;5041375;28;20041;-67
2022/03/03 00:47:45;;;;;;;45.72;22.58;;;;;;;0.51;99.36;96867.91;5041746;28;20045;-66
2022/03/03 00:50:11;;;;;;;46.53;24.23;;;;;;;0.44;100.00;96858.59;5034964;28;20037;-67
2022/03/03 00:52:36;;;;;;;43.28;23.10;;;;;;;0.42;100.00;96856.22;5041429;28;20045;-67
2022/03/03 00:55:03;;;;;;;49.55;22.83;;;;;;;0.30;100.00;96848.59;5043252;28;20417;-66
2022/03/03 00:57:29;;;;;;;44.17;22.52;;;;;;;0.28;100.00;96850.00;5026497;28;20639;-66
2022/03/03 00:59:54;;;;;;;44.38;21.50;;;;;;;0.21;100.00;96855.75;5057062;28;20098;-65
2022/03/03 01:02:20;;;;;;;47.90;23.02;;;;;;;0.16;100.00;96855.84;5036897;28;20045;-65
2022/03/03 01:04:45;;;;;;;45.58;23.42;;;;;;;0.15;100.00;96854.25;5039659;28;20049;-65
2022/03/03 01:07:10;;;;;;;42.33;22.50;;;;;;;0.07;100.00;96852.22;5042081;28;20048;-66
2022/03/03 01:09:36;;;;;;;48.78;23.83;;;;;;;0.08;100.00;96851.13;5043193;28;20045;-65
2022/03/03 01:12:03;;;;;;;47.58;21.92;;;;;;;0.08;100.00;96853.84;5051526;28;20080;-65
2022/03/03 01:14:28;;;;;;;42.85;22.90;;;;;;;0.02;100.00;96855.00;5042020;28;20048;-65
2022/03/03 01:16:54;;;;;;;39.25;20.38;;;;;;;-0.21;100.00;96861.00;5042008;28;20098;-64
2022/03/03 01:19:19;;;;;;;40.22;21.35;;;;;;;-0.36;100.00;96855.03;5063079;28;20047;-64
2022/03/03 01:21:45;;;;;;;41.50;22.35;;;;;;;-0.39;100.00;96856.44;5071864;28;20119;-65
2022/03/03 01:24:11;;;;;;;40.65;21.25;;;;;;;-0.44;100.00;96846.53;5070455;28;20036;-65
2022/03/03 01:26:36;;;;;;;37.67;21.33;;;;;;;-0.48;100.00;96845.53;5060413;28;20040;-65
2022/03/03 01:29:02;;;;;;;47.33;21.75;;;;;;;-0.48;100.00;96840.16;5062695;28;20029;-64
2022/03/03 01:31:28;;;;;;;46.47;22.60;;;;;;;-0.53;100.00;96837.53;5051123;28;20496;-66
2022/03/03 01:33:54;;;;;;;40.92;22.55;;;;;;;-0.52;100.00;96833.75;5032499;28;20112;-66
2022/03/03 01:36:19;;;;;;;42.90;22.10;;;;;;;-0.53;100.00;96834.84;5013182;28;20482;-65
2022/03/03 01:38:45;;;;;;;47.00;22.15;;;;;;;-0.61;100.00;96836.28;5031451;28;20415;-65
2022/03/03 01:41:10;;;;;;;42.45;21.40;;;;;;;-0.67;100.00;96842.03;5030607;28;20045;-65
2022/03/03 01:43:38;;;;;;;43.50;22.05;;;;;;;-0.73;100.00;96829.75;5030314;28;20029;-65
2022/03/03 01:46:04;;;;;;;41.35;21.48;;;;;;;-0.75;100.00;96831.94;5048065;28;20033;-65
2022/03/03 01:48:29;;;;;;;41.55;22.63;;;;;;;-0.74;100.00;96834.31;5054269;28;20033;-65
2022/03/03 01:50:55;;;;;;;42.35;21.55;;;;;;;-0.76;100.00;96828.44;5060759;28;20041;-65
2022/03/03 01:53:20;;;;;;;43.78;22.50;;;;;;;-0.91;100.00;96823.28;5051865;28;20037;-65
2022/03/03 01:55:46;;;;;;;43.95;22.98;;;;;;;-1.08;100.00;96816.50;5049861;28;20190;-65
2022/03/03 01:58:11;;;;;;;40.70;22.23;;;;;;;-1.13;100.00;96807.66;5050507;28;20036;-65
2022/03/03 02:00:37;;;;;;;45.25;22.33;;;;;;;-1.29;100.00;96805.19;5048104;28;20535;-65
2022/03/03 02:03:02;;;;;;;47.03;21.75;;;;;;;-1.38;100.00;96804.22;5038720;28;20048;-64
2022/03/03 02:05:30;;;;;;;41.63;22.50;;;;;;;-1.48;100.00;96799.75;5049947;28;20033;-65
2022/03/03 02:07:56;;;;;;;45.90;23.10;;;;;;;-1.37;100.00;96800.44;5050299;28;20041;-64
2022/03/03 02:10:21;;;;;;;43.45;22.38;;;;;;;-1.31;100.00;96798.50;5050755;28;20043;-65
2022/03/03 02:12:47;;;;;;;44.50;23.48;;;;;;;-1.29;100.00;96796.34;5050795;28;20064;-64
2022/03/03 02:15:17;;;;;;;42.22;22.42;;;;;;;-1.29;100.00;96799.03;5050510;28;20107;-65
2022/03/03 02:17:43;;;;;;;41.92;21.83;;;;;;;-1.37;100.00;96787.81;5050428;28;20500;-66
2022/03/03 02:20:18;;;;;;;43.53;23.00;;;;;;;-1.38;100.00;96796.94;5050391;28;20033;-64
2022/03/03 02:22:44;;;;;;;38.72;21.00;;;;;;;-1.35;100.00;96792.91;5050793;28;20025;-64
2022/03/03 02:25:10;;;;;;;42.70;21.20;;;;;;;-1.31;100.00;96790.44;5050411;28;20055;-65
2022/03/03 02:27:35;;;;;;;44.75;22.13;;;;;;;-1.36;100.00;96796.66;5050127;28;20145;-63
2022/03/03 02:30:01;;;;;;;38.83;21.15;;;;;;;-1.47;100.00;96796.00;5051043;28;20036;-64
2022/03/03 02:32:27;;;;;;;42.92;21.33;;;;;;;-1.48;100.00;96793.59;5058418;28;20029;-63
2022/03/03 02:34:53;;;;;;;43.10;19.83;;;;;;;-1.45;100.00;96799.19;5058852;28;20048;-65
2022/03/03 02:37:18;;;;;;;40.67;21.42;;;;;;;-1.39;100.00;96784.63;5054072;28;20033;-64
2022/03/03 02:39:44;;;;;;;46.13;22.35;;;;;;;-1.47;100.00;96779.88;5053869;28;20039;-62
2022/03/03 02:42:10;;;;;;;42.78;22.70;;;;;;;-1.48;100.00;96780.16;5053800;28;20052;-65
2022/03/03 02:44:35;;;;;;;44.13;22.08;;;;;;;-1.52;100.00;96787.19;5053606;28;20542;-63
2022/03/03 02:47:00;;;;;;;39.50;20.42;;;;;;;-1.55;100.00;96789.38;5053494;28;20029;-64
2022/03/03 02:49:26;;;;;;;39.25;20.35;;;;;;;-1.56;100.00;96779.69;5053491;28;20041;-64
2022/03/03 02:51:52;;;;;;;43.85;21.70;;;;;;;-1.61;100.00;96771.69;5053996;28;20028;-64
2022/03/03 02:54:18;;;;;;;39.25;20.10;;;;;;;-1.88;100.00;96771.47;5053425;28;20029;-64
2022/03/03 02:59:27;;;;;;;40.40;20.20;;;;;;;-2.24;100.00;96780.66;5053580;28;20041;-64
2022/03/03 03:01:53;;;;;;;42.20;22.45;;;;;;;-2.47;100.00;96770.66;5052347;28;20033;-64
2022/03/03 03:04:18;;;;;;;41.72;21.05;;;;;;;-2.67;100.00;96771.63;5053609;28;20485;-64
2022/03/03 03:06:43;;;;;;;45.50;23.05;;;;;;;-2.79;100.00;96772.78;5053267;28;20060;-65
2022/03/03 03:09:09;;;;;;;45.65;22.45;;;;;;;-2.86;100.00;96772.28;5053382;28;20104;-65
2022/03/03 03:11:34;;;;;;;46.65;23.65;;;;;;;-2.90;100.00;96774.72;5053635;28;20024;-64
2022/03/03 03:14:00;;;;;;;40.22;21.02;;;;;;;-2.75;100.00;96784.53;5053389;28;20033;-65
2022/03/03 03:16:25;;;;;;;40.58;22.05;;;;;;;-2.51;100.00;96773.88;5053085;28;20052;-64
2022/03/03 03:18:51;;;;;;;45.33;22.35;;;;;;;-2.37;100.00;96771.38;5035183;28;20078;-63
2022/03/03 03:21:16;;;;;;;44.15;22.98;;;;;;;-2.26;100.00;96774.78;5053168;28;20064;-64
2022/03/03 03:23:42;;;;;;;44.90;21.55;;;;;;;-2.24;100.00;96767.22;5052963;28;20068;-64
2022/03/03 03:26:07;;;;;;;44.92;21.58;;;;;;;-2.20;100.00;96767.47;5052660;28;20059;-64
2022/03/03 03:28:33;;;;;;;40.88;20.88;;;;;;;-2.18;100.00;96766.13;5053185;28;20029;-63
2022/03/03 03:30:58;;;;;;;40.70;20.30;;;;;;;-2.08;100.00;96783.22;5053880;28;20025;-66
2022/03/03 03:33:23;;;;;;;42.85;21.55;;;;;;;-2.08;100.00;96769.78;5053704;28;20037;-66
2022/03/03 03:35:49;;;;;;;44.22;20.98;;;;;;;-2.09;100.00;96768.97;5055220;28;20024;-65
2022/03/03 03:38:14;;;;;;;43.10;21.83;;;;;;;-2.21;100.00;96768.56;5062606;28;20031;-62
2022/03/03 03:40:40;;;;;;;40.58;20.52;;;;;;;-2.43;100.00;96771.69;5060374;28;20117;-67
2022/03/03 03:43:05;;;;;;;46.65;22.95;;;;;;;-2.66;100.00;96773.22;5051157;28;20029;-65
2022/03/03 03:45:31;;;;;;;44.47;21.70;;;;;;;-2.82;100.00;96767.97;5060481;28;20107;-65
2022/03/03 03:47:57;;;;;;;44.40;21.50;;;;;;;-2.96;100.00;96762.41;5071833;28;20028;-64
2022/03/03 03:50:23;;;;;;;43.80;22.33;;;;;;;-3.05;100.00;96763.28;5072519;28;20039;-64
2022/03/03 03:52:49;;;;;;;46.38;22.95;;;;;;;-2.88;100.00;96764.50;5071243;28;20481;-64
2022/03/03 03:55:14;;;;;;;40.60;21.25;;;;;;;-2.75;100.00;96762.28;5061233;28;20091;-63
2022/03/03 03:57:40;;;;;;;39.50;22.55;;;;;;;-2.61;100.00;96765.94;5068506;28;20066;-62
2022/03/03 04:00:09;;;;;;;41.45;20.92;;;;;;;-2.50;100.00;96763.97;5069946;28;20127;-64
2022/03/03 04:02:34;;;;;;;52.45;21.85;;;;;;;-2.46;100.00;96765.00;5057475;28;20024;-62
2022/03/03 04:04:59;;;;;;;41.85;21.98;;;;;;;-2.44;100.00;96767.41;5065303;28;20370;-64
2022/03/03 04:07:25;;;;;;;36.85;20.90;;;;;;;-2.36;100.00;96767.63;5073781;28;20037;-62
2022/03/03 04:09:50;;;;;;;41.30;22.70;;;;;;;-2.36;100.00;96761.44;5072782;28;20139;-64
2022/03/03 04:12:15;;;;;;;39.40;19.92;;;;;;;-2.41;100.00;96759.63;5071880;28;20032;-64
2022/03/03 04:14:41;;;;;;;42.28;20.73;;;;;;;-2.58;100.00;96759.22;5061034;28;20033;-63
2022/03/03 04:17:07;;;;;;;39.85;20.25;;;;;;;-3.17;100.00;96755.56;5063861;28;20373;-63
2022/03/03 04:19:32;;;;;;;38.15;19.48;;;;;;;-3.29;100.00;96766.63;5063297;28;20039;-62
2022/03/03 04:21:58;;;;;;;37.75;21.00;;;;;;;-3.27;100.00;96761.78;5054465;28;20048;-64
2022/03/03 04:24:23;;;;;;;38.70;20.65;;;;;;;-3.14;100.00;96763.84;5063603;28;20052;-63
2022/03/03 04:26:48;;;;;;;45.40;21.30;;;;;;;-3.07;100.00;96767.03;5070276;28;20094;-64
2022/03/03 04:29:14;;;;;;;40.55;21.92;;;;;;;-2.97;100.00;96768.03;5062551;28;20526;-65
2022/03/03 04:31:39;;;;;;;37.90;19.50;;;;;;;-2.89;100.00;96762.09;5060899;28;20036;-65
2022/03/03 04:34:05;;;;;;;42.85;21.27;;;;;;;-2.85;100.00;96762.34;5058756;28;20599;-64
2022/03/03 04:36:30;;;;;;;44.53;21.40;;;;;;;-2.79;100.00;96763.91;5066872;28;20032;-64
2022/03/03 04:38:56;;;;;;;37.53;20.63;;;;;;;-2.81;100.00;96761.53;5049831;28;20500;-64
2022/03/03 04:41:21;;;;;;;37.45;19.92;;;;;;;-2.84;100.00;96756.72;5056493;28;20119;-64
2022/03/03 04:43:47;;;;;;;35.55;20.02;;;;;;;-2.91;100.00;96765.06;5060744;28;20040;-65
2022/03/03 04:46:12;;;;;;;36.80;20.60;;;;;;;-3.00;100.00;96755.22;5063219;28;20497;-63
2022/03/03 04:48:37;;;;;;;40.78;20.92;;;;;;;-2.94;100.00;96749.53;5065728;28;20024;-63
2022/03/03 04:51:03;;;;;;;49.80;23.13;;;;;;;-2.90;100.00;96742.56;5065229;28;20393;-64
2022/03/03 04:53:29;;;;;;;45.70;21.15;;;;;;;-2.91;100.00;96746.31;5071004;28;20032;-64
2022/03/03 04:55:56;;;;;;;45.67;21.52;;;;;;;-3.00;100.00;96745.28;5054460;28;20032;-64
2022/03/03 04:58:22;;;;;;;40.40;20.13;;;;;;;-3.27;100.00;96741.16;5059160;28;20440;-64
2022/03/03 05:00:48;;;;;;;43.85;20.95;;;;;;;-3.31;100.00;96748.16;5058541;28;20020;-66
2022/03/03 05:03:15;;;;;;;39.40;19.70;;;;;;;-3.17;100.00;96753.72;5056306;28;20072;-64
2022/03/03 05:05:40;;;;;;;43.30;20.58;;;;;;;-3.07;100.00;96748.28;5053927;28;20473;-64
2022/03/03 05:08:06;;;;;;;39.15;20.08;;;;;;;-3.10;100.00;96754.22;5060223;28;20036;-64
2022/03/03 05:10:32;;;;;;;41.13;20.70;;;;;;;-3.14;100.00;96752.34;5068322;28;20032;-64
2022/03/03 05:12:57;;;;;;;40.28;19.90;;;;;;;-3.03;100.00;96755.75;5063289;28;20033;-64
2022/03/03 05:15:23;;;;;;;37.30;20.45;;;;;;;-2.99;100.00;96754.13;5062711;28;20044;-63
2022/03/03 05:17:48;;;;;;;45.15;20.95;;;;;;;-3.03;100.00;96753.09;5070508;28;20051;-64
2022/03/03 05:20:14;;;;;;;40.60;19.77;;;;;;;-2.96;100.00;96753.56;5086953;28;20127;-64
2022/03/03 05:22:40;;;;;;;37.47;20.38;;;;;;;-3.00;100.00;96758.69;5071343;28;20070;-64
2022/03/03 05:25:05;;;;;;;39.72;19.80;;;;;;;-2.96;100.00;96753.56;5071336;28;20111;-64
2022/03/03 05:27:33;;;;;;;40.42;20.50;;;;;;;-3.01;100.00;96746.34;5062060;28;20363;-63
2022/03/03 05:29:59;;;;;;;45.65;21.25;;;;;;;-3.02;100.00;96749.34;5072010;28;20040;-65
2022/03/03 05:32:24;;;;;;;43.80;20.85;;;;;;;-3.05;100.00;96745.31;5084000;28;20032;-64
2022/03/03 05:34:49;;;;;;;43.97;21.27;;;;;;;-3.08;100.00;96749.38;5084226;28;20054;-67
2022/03/03 05:37:21;;;;;;;44.70;21.17;;;;;;;-3.11;100.00;96747.22;5083740;28;20036;-64
2022/03/03 05:39:47;;;;;;;40.97;20.35;;;;;;;-3.17;100.00;96745.69;5084280;28;20458;-65
2022/03/03 05:42:13;;;;;;;40.97;20.33;;;;;;;-3.16;100.00;96751.81;5076170;28;20044;-65
2022/03/03 05:44:38;;;;;;;39.05;19.73;;;;;;;-3.18;100.00;96748.63;5072929;28;20037;-64
2022/03/03 05:47:04;;;;;;;39.22;20.50;;;;;;;-3.22;100.00;96747.56;5082709;28;20024;-65
2022/03/03 05:49:30;;;;;;;38.67;18.45;;;;;;;-3.34;100.00;96735.31;5084358;28;20082;-65
2022/03/03 05:51:55;;;;;;;39.92;20.17;;;;;;;-3.41;100.00;96739.38;5083729;28;20082;-65
2022/03/03 05:54:21;;;;;;;42.80;21.05;;;;;;;-3.30;100.00;96739.03;5076909;28;20041;-65
2022/03/03 05:56:48;;;;;;;39.05;20.45;;;;;;;-3.35;100.00;96743.63;5063855;28;20070;-65
2022/03/03 05:59:15;;;;;;;47.55;21.38;;;;;;;-3.65;100.00;96745.38;5072023;28;20044;-64
2022/03/03 06:01:42;;;;;;;42.45;21.88;;;;;;;-3.78;100.00;96749.44;5069676;28;20067;-65
2022/03/03 06:04:12;;;;;;;43.75;21.35;;;;;;;-3.67;100.00;96752.88;5066133;28;20376;-65
2022/03/03 06:06:43;;;;;;;45.08;22.98;;;;;;;-3.67;100.00;96751.00;5083234;28;20066;-65
2022/03/03 06:09:13;;;;;;;51.33;22.92;;;;;;;-3.56;100.00;96749.06;5069437;28;20033;-65
2022/03/03 06:12:06;;;;;;;45.90;20.67;;;;;;;-3.42;100.00;96751.97;5064548;28;20029;-64
2022/03/03 06:14:47;;;;;;;49.85;22.13;;;;;;;-3.29;100.00;96750.56;5054412;28;20045;-64
2022/03/03 06:17:13;;;;;;;40.95;21.20;;;;;;;-3.17;100.00;96752.88;5054122;28;20577;-63
2022/03/03 06:19:41;;;;;;;42.47;21.48;;;;;;;-3.13;100.00;96746.72;5053026;28;20052;-62
2022/03/03 06:22:08;;;;;;;42.58;21.30;;;;;;;-2.97;100.00;96754.66;5065916;28;20389;-62
2022/03/03 06:24:33;;;;;;;41.97;21.80;;;;;;;-2.92;100.00;96747.41;5077233;28;20039;-65
2022/03/03 06:26:59;;;;;;;42.25;20.40;;;;;;;-2.88;100.00;96751.13;5080936;28;20032;-64
2022/03/03 06:29:24;;;;;;;39.40;21.60;;;;;;;-2.83;100.00;96752.94;5074133;28;20477;-65
2022/03/03 06:31:50;;;;;;;40.72;20.83;;;;;;;-2.75;100.00;96747.00;5074211;28;20052;-65
2022/03/03 06:34:15;;;;;;;42.78;21.27;;;;;;;-2.63;100.00;96754.69;5064090;28;20040;-64
2022/03/03 06:36:41;;;;;;;41.00;20.13;;;;;;;-2.50;100.00;96754.03;5061746;28;20029;-64
2022/03/03 06:39:06;;;;;;;42.13;21.38;;;;;;;-2.39;100.00;96752.06;5064918;28;20029;-64
2022/03/03 06:41:31;;;;;;;40.17;20.38;;;;;;;-2.21;100.00;96744.41;5069565;28;20035;-65
2022/03/03 06:43:57;;;;;;;41.03;19.35;;;;;;;-2.07;100.00;96744.53;5073849;28;20032;-65
2022/03/03 06:46:23;;;;;;;48.15;20.63;;;;;;;-1.99;100.00;96747.41;5073425;28;20028;-63
2022/03/03 06:48:49;;;;;;;37.30;19.88;;;;;;;-1.76;100.00;96753.88;5074047;28;20033;-65
2022/03/03 06:51:15;;;;;;;48.88;20.50;;;;;;;-1.28;100.00;96744.97;5074947;28;20024;-65
2022/03/03 06:53:44;;;;;;;36.35;19.63;;;;;;;-0.33;100.00;96749.50;5076798;28;20032;-65
2022/03/03 06:56:12;;;;;;;35.93;18.47;;;;;;;0.81;95.44;96748.97;5066221;28;20485;-66
2022/03/03 06:58:38;;;;;;;35.25;18.27;;;;;;;2.04;86.75;96748.81;5074228;28;20262;-66
2022/03/03 07:01:09;;;;;;;30.02;16.63;;;;;;;3.02;76.18;96741.50;5073720;28;20035;-66
2022/03/03 07:03:35;;;;;;;31.88;17.13;;;;;;;3.72;73.01;96733.38;5070313;28;20055;-66
2022/03/03 07:06:02;;;;;;;26.88;15.85;;;;;;;4.57;68.16;96724.50;5067687;28;20585;-66
2022/03/03 07:08:27;;;;;;;31.60;16.42;;;;;;;4.95;67.25;96735.31;5084169;28;20104;-67
2022/03/03 07:10:53;;;;;;;29.65;16.30;;;;;;;5.36;64.36;96732.94;5073887;28;20131;-67
2022/03/03 07:13:19;;;;;;;32.13;16.55;;;;;;;6.13;60.59;96730.66;5073802;28;20081;-66
2022/03/03 07:15:50;;;;;;;32.95;15.15;;;;;;;6.75;56.88;96724.47;5072334;28;20021;-66
2022/03/03 07:18:47;;;;;;;32.72;15.20;;;;;;;7.39;54.96;96725.63;5055868;28;20542;-64
2022/03/03 07:21:49;;;;;;;32.90;18.85;;;;;;;7.74;52.29;96728.59;5044286;28;20052;-67
2022/03/03 07:24:23;;;;;;;34.70;18.42;;;;;;;7.85;52.59;96720.69;5030039;28;20276;-65
2022/03/03 07:26:53;;;;;;;28.48;16.73;;;;;;;8.25;51.82;96725.25;5047231;28;20044;-66
2022/03/03 07:29:19;;;;;;;33.78;16.27;;;;;;;8.03;51.66;96732.88;5053611;28;20132;-66
2022/03/03 07:31:55;;;;;;;29.17;17.10;;;;;;;8.73;50.12;96728.81;5063476;28;20036;-66
2022/03/03 07:34:26;;;;;;;25.42;16.30;;;;;;;9.18;48.97;96732.16;5058105;28;20515;-65
2022/03/03 07:36:56;;;;;;;24.35;15.10;;;;;;;9.77;47.23;96730.28;5049533;28;20119;-65
2022/03/03 07:39:30;;;;;;;33.15;16.55;;;;;;;9.85;46.29;96728.47;5049769;28;20044;-65
2022/03/03 07:41:56;;;;;;;26.58;16.55;;;;;;;7.30;49.74;96714.88;5063110;28;20076;-65
2022/03/03 07:44:21;;;;;;;29.75;16.05;;;;;;;8.11;49.50;96714.75;5056167;28;20505;-65
2022/03/03 07:46:47;;;;;;;28.73;14.90;;;;;;;9.25;47.08;96715.13;5051772;28;20041;-65
2022/03/03 07:49:13;;;;;;;29.60;16.02;;;;;;;9.63;45.18;96716.31;5043791;28;20081;-66
2022/03/03 07:51:40;;;;;;;28.20;14.98;;;;;;;10.02;43.04;96719.03;5050585;28;20037;-66
2022/03/03 07:54:05;;;;;;;28.80;15.68;;;;;;;10.48;43.44;96713.63;5057003;28;20066;-66
2022/03/03 07:56:41;;;;;;;25.10;15.13;;;;;;;10.59;42.66;96717.34;5073747;28;20044;-66
2022/03/03 07:59:11;;;;;;;25.38;15.35;;;;;;;9.34;44.78;96710.25;5052247;28;20064;-66
2022/03/03 08:01:37;;;;;;;31.35;15.68;;;;;;;8.78;46.18;96703.94;5059080;28;20079;-67
2022/03/03 08:04:03;;;;;;;27.10;15.63;;;;;;;7.89;49.38;96710.69;5050218;28;20029;-66
2022/03/03 08:06:30;;;;;;;28.00;16.60;;;;;;;7.83;51.40;96699.22;5062345;28;20052;-67
2022/03/03 08:08:59;;;;;;;31.08;18.00;;;;;;;9.28;48.23;96698.81;5057482;28;20053;-66
2022/03/03 08:11:27;;;;;;;33.03;18.15;;;;;;;6.81;54.69;96695.91;5053465;28;20126;-66
2022/03/03 08:13:54;;;;;;;32.28;18.05;;;;;;;7.02;54.46;96695.75;5049681;28;20113;-65
2022/03/03 08:16:20;;;;;;;35.00;17.65;;;;;;;7.17;53.92;96700.50;5050027;28;20047;-66
2022/03/03 08:18:47;;;;;;;32.95;18.33;;;;;;;7.64;54.43;96699.88;5062885;28;20564;-66
2022/03/03 08:21:16;;;;;;;33.50;18.23;;;;;;;8.37;51.61;96697.06;5057817;28;20048;-66
2022/03/03 08:23:43;;;;;;;34.58;16.80;;;;;;;8.55;50.94;96698.34;5063487;28;20136;-67
2022/03/03 08:26:12;;;;;;;32.80;16.98;;;;;;;8.84;49.54;96685.38;5058425;28;20040;-66
2022/03/03 08:28:39;;;;;;;29.48;18.08;;;;;;;9.65;48.58;96681.19;5064425;28;20052;-66
2022/03/03 08:31:06;;;;;;;30.17;16.48;;;;;;;10.90;45.27;96672.41;5057035;28;20043;-66
2022/03/03 08:33:44;;;;;;;39.72;17.60;;;;;;;10.44;45.37;96677.97;5061605;28;20156;-66
2022/03/03 08:36:34;;;;;;;36.13;20.27;;;;;;;9.90;46.32;96687.94;5056956;28;20120;-65
2022/03/03 08:39:07;;;;;;;27.10;16.33;;;;;;;11.83;43.64;96686.53;5061995;28;20126;-65
2022/03/03 08:41:36;;;;;;;32.25;19.52;;;;;;;11.45;44.08;96682.13;5061725;28;20045;-66
2022/03/03 08:44:04;;;;;;;25.50;16.77;;;;;;;11.37;42.93;96675.00;5065952;28;20040;-66
2022/03/03 08:46:32;;;;;;;24.92;16.70;;;;;;;12.22;42.27;96669.69;5073259;28;20051;-67
2022/03/03 08:49:00;;;;;;;29.23;16.80;;;;;;;13.07;40.52;96665.25;5073880;28;20045;-66
2022/03/03 08:51:27;;;;;;;28.85;15.77;;;;;;;12.52;39.76;96660.53;5064711;28;20172;-68
2022/03/03 08:53:53;;;;;;;31.35;17.33;;;;;;;12.71;40.19;96651.28;5073050;28;20048;-65
2022/03/03 08:56:19;;;;;;;30.30;17.95;;;;;;;10.82;44.54;96645.28;5066192;28;20077;-65
2022/03/03 08:58:44;;;;;;;29.63;16.92;;;;;;;11.67;42.25;96639.31;5072581;28;20045;-65
2022/03/03 09:01:10;;;;;;;27.50;17.67;;;;;;;11.96;41.68;96632.19;5065603;28;20090;-66
2022/03/03 09:03:37;;;;;;;30.45;16.90;;;;;;;11.04;43.93;96624.47;5070250;28;20491;-66
2022/03/03 09:06:02;;;;;;;25.80;16.80;;;;;;;10.66;43.05;96621.59;5063508;28;20505;-65
2022/03/03 09:08:28;;;;;;;28.05;17.92;;;;;;;8.77;49.72;96625.13;5055368;28;20078;-65
2022/03/03 09:10:53;;;;;;;31.42;17.80;;;;;;;10.86;45.73;96619.50;5075365;28;20075;-65
2022/03/03 09:13:19;;;;;;;28.50;17.70;;;;;;;10.50;46.15;96615.47;5065143;28;20047;-67
2022/03/03 09:15:44;;;;;;;32.00;17.80;;;;;;;10.02;46.88;96615.06;5059049;28;20117;-65
2022/03/03 09:18:10;;;;;;;37.33;19.08;;;;;;;10.98;44.82;96607.53;5056299;28;20082;-66
2022/03/03 09:20:35;;;;;;;31.52;19.38;;;;;;;10.74;45.98;96606.03;5061935;28;20084;-67
2022/03/03 09:23:02;;;;;;;29.75;19.73;;;;;;;12.03;43.39;96604.81;5059350;28;20528;-67
2022/03/03 09:25:28;;;;;;;32.72;19.90;;;;;;;12.11;43.14;96605.66;5064511;28;20094;-66
2022/03/03 09:27:53;;;;;;;33.20;20.25;;;;;;;11.87;42.78;96598.75;5060794;28;20048;-66
2022/03/03 09:30:18;;;;;;;30.48;19.48;;;;;;;13.42;40.84;96603.38;5054138;28;20493;-65
2022/03/03 09:32:44;;;;;;;29.98;17.00;;;;;;;13.25;39.30;96602.06;5061188;28;20032;-66
2022/03/03 09:35:11;;;;;;;45.92;18.25;;;;;;;12.30;41.61;96595.59;5055662;28;20032;-66
2022/03/03 09:37:37;;;;;;;32.88;17.15;;;;;;;13.35;39.85;96598.63;5060412;28;20076;-66
2022/03/03 09:40:04;;;;;;;28.20;16.77;;;;;;;12.26;42.51;96598.31;5059226;28;20494;-65
2022/03/03 09:42:33;;;;;;;35.38;18.48;;;;;;;12.74;41.42;96606.53;5065100;28;20118;-66
2022/03/03 09:45:00;;;;;;;31.33;19.17;;;;;;;13.45;39.28;96610.03;5064820;28;20435;-66
2022/03/03 09:47:26;;;;;;;39.78;19.77;;;;;;;12.19;41.67;96601.81;5060269;28;20048;-66
2022/03/03 09:49:51;;;;;;;30.30;18.85;;;;;;;13.77;39.66;96607.38;5064519;28;20055;-66
2022/03/03 09:52:18;;;;;;;34.53;20.00;;;;;;;11.04;44.99;96605.28;5059709;28;20075;-66
2022/03/03 09:54:48;;;;;;;30.70;19.30;;;;;;;9.46;49.34;96597.25;5065222;28;20074;-67
2022/03/03 09:57:15;;;;;;;35.67;19.27;;;;;;;10.74;44.91;96603.28;5073934;28;20040;-67
2022/03/03 09:59:41;;;;;;;36.60;19.92;;;;;;;9.17;50.97;96602.94;5065277;28;20043;-66
2022/03/03 10:02:07;;;;;;;38.33;19.60;;;;;;;10.22;49.46;96607.56;5059549;28;20094;-66
2022/03/03 10:04:34;;;;;;;33.35;20.23;;;;;;;10.37;48.05;96595.72;5063658;28;20052;-67
2022/03/03 10:07:08;;;;;;;32.88;18.60;;;;;;;13.22;42.05;96597.38;5063757;28;20037;-67
2022/03/03 10:09:59;;;;;;;33.88;18.33;;;;;;;12.80;41.52;96588.50;5069365;28;20045;-66
2022/03/03 10:12:24;;;;;;;32.70;17.55;;;;;;;13.53;39.52;96589.63;5066567;28;20055;-66
2022/03/03 10:14:50;;;;;;;28.92;17.17;;;;;;;13.33;39.04;96598.22;5063911;28;20477;-66
2022/03/03 10:17:16;;;;;;;31.02;17.63;;;;;;;13.76;39.30;96587.34;5052539;28;20055;-68
2022/03/03 10:19:56;;;;;;;30.88;18.13;;;;;;;11.55;42.90;96574.53;5080979;28;20044;-66
2022/03/03 10:22:45;;;;;;;43.50;19.65;;;;;;;10.02;47.65;96572.06;5058803;28;20110;-66
2022/03/03 10:25:12;;;;;;;30.27;17.77;;;;;;;11.36;43.24;96572.75;5058685;28;20106;-66
2022/03/03 10:27:38;;;;;;;30.77;17.90;;;;;;;10.99;44.40;96564.47;5062962;28;20291;-67
2022/03/03 10:30:06;;;;;;;32.47;18.95;;;;;;;12.27;41.79;96566.19;5060827;28;20052;-66
2022/03/03 10:32:35;;;;;;;32.17;17.85;;;;;;;11.00;42.99;96574.28;5064922;28;20078;-66
2022/03/03 10:35:12;;;;;;;31.95;18.95;;;;;;;9.35;46.45;96570.50;5064779;28;20096;-65
2022/03/03 10:37:37;;;;;;;34.33;19.50;;;;;;;9.16;47.91;96571.31;5063342;28;20047;-65
2022/03/03 10:40:02;;;;;;;36.42;19.60;;;;;;;9.72;46.61;96563.72;5051117;28;20045;-68
2022/03/03 10:42:28;;;;;;;35.00;20.00;;;;;;;11.70;43.11;96556.25;5041684;28;20033;-66
2022/03/03 10:45:09;;;;;;;36.72;18.58;;;;;;;11.78;42.17;96552.41;5043460;28;20106;-67
2022/03/03 10:47:35;;;;;;;31.92;18.77;;;;;;;11.00;43.55;96553.16;5042375;28;20041;-66
2022/03/03 10:50:00;;;;;;;35.88;20.40;;;;;;;11.60;43.39;96541.25;5043783;28;20103;-65
2022/03/03 10:52:28;;;;;;;34.75;18.42;;;;;;;12.06;42.12;96537.38;5038858;28;20496;-68
2022/03/03 10:55:16;;;;;;;32.10;18.80;;;;;;;12.32;41.34;96532.88;5043842;28;20041;-67
2022/03/03 10:57:58;;;;;;;36.78;20.45;;;;;;;13.48;39.28;96535.00;5043963;28;20075;-65
2022/03/03 11:00:29;;;;;;;33.40;19.48;;;;;;;15.53;34.63;96532.69;5046729;28;20293;-67
2022/03/03 11:02:56;;;;;;;36.50;19.13;;;;;;;15.80;34.22;96526.63;5050155;28;20051;-68
2022/03/03 11:05:23;;;;;;;29.58;17.48;;;;;;;15.82;31.86;96518.72;5041929;28;20228;-66
2022/03/03 11:07:50;;;;;;;28.85;17.42;;;;;;;15.52;32.10;96511.00;5044376;28;20072;-66
2022/03/03 11:10:18;;;;;;;33.85;18.40;;;;;;;15.12;32.35;96502.94;5039358;28;20473;-66
2022/03/03 11:12:45;;;;;;;35.20;19.23;;;;;;;14.18;34.37;96513.41;5043950;28;20128;-67
2022/03/03 11:15:15;;;;;;;33.97;19.38;;;;;;;13.85;40.71;96507.13;5037967;28;20091;-67
2022/03/03 11:17:41;;;;;;;43.90;21.88;;;;;;;13.06;43.37;96512.44;5042997;28;20552;-65